This is the latest recevied weather packets stored in our database for station/object DB0RV-13. If no packets are shown the sender has not sent any weather packets the latest 10 day(s).
| Time | Temp. | Humidity | Pressure | Rain* | Wind** | Luminosity | Snow |
|---|---|---|---|---|---|---|---|
| 1777765201 | 12.22° C | 64% | 1015.7 hPa | - | - | - | - |
| 1777764902 | 12.22° C | 64% | 1015.7 hPa | - | - | - | - |
| 1777764602 | 12.22° C | 64% | 1015.7 hPa | - | - | - | - |
| 1777764301 | 12.22° C | 63% | 1015.7 hPa | - | - | - | - |
| 1777764002 | 12.22° C | 62% | 1015.8 hPa | - | - | - | - |
| 1777763702 | 12.78° C | 61% | 1015.8 hPa | - | - | - | - |
| 1777763401 | 12.78° C | 62% | 1015.8 hPa | - | - | - | - |
| 1777763102 | 12.78° C | 62% | 1015.8 hPa | - | - | - | - |
| 1777762802 | 12.78° C | 61% | 1015.9 hPa | - | - | - | - |
| 1777762501 | 12.78° C | 63% | 1015.9 hPa | - | - | - | - |
| 1777762202 | 12.78° C | 62% | 1015.9 hPa | - | - | - | - |
| 1777761902 | 13.89° C | 57% | 1015.9 hPa | - | - | - | - |
| 1777761601 | 13.33° C | 60% | 1015.9 hPa | - | - | - | - |
| 1777761302 | 13.89° C | 58% | 1015.8 hPa | - | - | - | - |
| 1777761002 | 14.44° C | 55% | 1016 hPa | - | - | - | - |
| 1777760701 | 15° C | 51% | 1015.9 hPa | - | - | - | - |
| 1777760402 | 15° C | 51% | 1016.1 hPa | - | - | - | - |
| 1777760102 | 14.44° C | 54% | 1015.9 hPa | - | - | - | - |
| 1777759801 | 14.44° C | 55% | 1015.9 hPa | - | - | - | - |
| 1777759502 | 14.44° C | 55% | 1015.9 hPa | - | - | - | - |
| 1777759202 | 14.44° C | 56% | 1015.9 hPa | - | - | - | - |
| 1777758901 | 13.89° C | 60% | 1016 hPa | - | - | - | - |
| 1777758602 | 13.33° C | 61% | 1015.9 hPa | - | - | - | - |
| 1777758302 | 13.89° C | 59% | 1015.8 hPa | - | - | - | - |
| 1777758001 | 13.89° C | 59% | 1015.7 hPa | - | - | - | - |
* Rain since midnight (hover to see other rain measurements)
** Current wind speed in m/s (hover to see current wind gust speed)